createdAt,value
2022-10-05T00:01:32.925Z,11.90
2022-10-05T00:04:11.482Z,12.00
2022-10-05T00:06:41.415Z,12.10
2022-10-05T00:09:16.107Z,12.10
2022-10-05T00:11:44.969Z,12.20
2022-10-05T00:14:22.798Z,12.20
2022-10-05T00:16:51.625Z,12.20
2022-10-05T00:19:25.609Z,12.20
2022-10-05T00:21:59.104Z,12.10
2022-10-05T00:24:27.461Z,12.10
2022-10-05T00:26:58.234Z,12.10
2022-10-05T00:29:27.731Z,12.00
2022-10-05T00:31:56.141Z,12.00
2022-10-05T00:34:27.063Z,12.00
2022-10-05T00:36:56.758Z,12.00
2022-10-05T00:39:25.205Z,11.90
2022-10-05T00:42:07.085Z,11.90
2022-10-05T00:44:44.219Z,11.80
2022-10-05T00:47:35.730Z,11.70
2022-10-05T00:50:32.223Z,11.70
2022-10-05T00:53:15.322Z,11.60
2022-10-05T00:55:58.588Z,11.70
2022-10-05T00:58:36.874Z,11.60
2022-10-05T01:01:13.234Z,11.60
2022-10-05T01:03:58.093Z,11.60
2022-10-05T01:06:34.469Z,11.50
2022-10-05T01:09:14.015Z,11.40
2022-10-05T01:11:50.123Z,11.50
2022-10-05T01:14:23.192Z,11.50
2022-10-05T01:16:57.413Z,11.40
2022-10-05T01:19:50.858Z,11.40
2022-10-05T01:22:31.247Z,11.40
2022-10-05T01:25:14.023Z,11.40
2022-10-05T01:27:56.152Z,11.40
2022-10-05T01:30:24.792Z,11.40
2022-10-05T01:33:01.260Z,11.40
2022-10-05T01:35:42.583Z,11.40
2022-10-05T01:38:22.306Z,11.40
2022-10-05T01:40:59.291Z,11.40
2022-10-05T01:43:35.013Z,11.40
2022-10-05T01:46:15.640Z,11.30
2022-10-05T01:48:54.311Z,11.40
2022-10-05T01:51:33.282Z,11.30
2022-10-05T01:54:08.245Z,11.30
2022-10-05T01:56:54.970Z,11.20
2022-10-05T01:59:34.546Z,11.10
2022-10-05T02:02:08.329Z,11.10
2022-10-05T02:05:01.607Z,11.00
2022-10-05T02:07:37.798Z,11.00
2022-10-05T02:10:14.149Z,10.90
2022-10-05T02:12:43.496Z,10.90
2022-10-05T02:15:16.294Z,10.70
2022-10-05T02:17:50.385Z,10.80
2022-10-05T02:20:23.820Z,10.70
2022-10-05T02:22:54.724Z,10.80
2022-10-05T02:25:28.486Z,10.90
2022-10-05T02:28:05.807Z,10.90
2022-10-05T02:30:43.549Z,10.90
2022-10-05T02:33:18.720Z,11.00
2022-10-05T02:35:47.676Z,11.10
2022-10-05T02:38:28.622Z,11.10
2022-10-05T02:41:04.002Z,11.10
2022-10-05T02:43:41.919Z,11.10
2022-10-05T02:46:23.383Z,11.10
2022-10-05T02:49:00.192Z,11.10
2022-10-05T02:51:35.251Z,11.10
2022-10-05T02:54:11.469Z,11.10
2022-10-05T02:56:48.679Z,11.10
2022-10-05T02:59:24.852Z,11.10
2022-10-05T03:01:59.252Z,11.10
2022-10-05T03:04:36.986Z,11.10
2022-10-05T03:07:16.500Z,11.10
2022-10-05T03:09:58.835Z,11.00
2022-10-05T03:12:50.894Z,11.00
2022-10-05T03:15:31.541Z,11.00
2022-10-05T03:18:14.007Z,10.90
2022-10-05T03:20:48.512Z,10.90
2022-10-05T03:23:30.869Z,10.80
2022-10-05T03:26:25.083Z,10.80
2022-10-05T03:29:02.746Z,10.80
2022-10-05T03:31:39.797Z,10.90
2022-10-05T03:34:16.430Z,10.90
2022-10-05T03:36:50.679Z,10.90
2022-10-05T03:39:23.964Z,10.90
2022-10-05T03:42:02.645Z,11.00
2022-10-05T03:44:40.442Z,10.90
2022-10-05T03:47:19.465Z,10.90
2022-10-05T03:50:07.282Z,10.90
2022-10-05T03:52:40.830Z,10.90
2022-10-05T03:55:18.489Z,10.90
2022-10-05T03:57:48.255Z,10.90
2022-10-05T04:00:20.809Z,10.80
2022-10-05T04:02:55.502Z,10.80
2022-10-05T04:05:31.925Z,10.80
2022-10-05T04:08:09.370Z,10.80
2022-10-05T04:10:43.777Z,10.80
2022-10-05T04:13:17.780Z,10.80
2022-10-05T04:15:51.921Z,10.70
2022-10-05T04:18:27.683Z,10.80
2022-10-05T04:21:05.189Z,10.70
2022-10-05T04:23:41.562Z,10.70
2022-10-05T04:26:15.465Z,10.70
2022-10-05T04:28:53.539Z,10.70
2022-10-05T04:31:35.224Z,10.70
2022-10-05T04:34:09.148Z,10.70
2022-10-05T04:36:47.092Z,10.70
2022-10-05T04:39:24.786Z,10.70
2022-10-05T04:42:05.620Z,10.70
2022-10-05T04:45:03.996Z,10.80
2022-10-05T04:47:57.506Z,10.70
2022-10-05T04:50:41.653Z,10.80
2022-10-05T04:53:22.698Z,10.80
2022-10-05T04:55:57.979Z,10.80
2022-10-05T04:58:42.281Z,10.80
2022-10-05T05:01:32.610Z,10.70
2022-10-05T05:04:18.149Z,10.70
2022-10-05T05:06:57.091Z,10.70
2022-10-05T05:09:56.840Z,10.70
2022-10-05T05:12:35.959Z,10.70
2022-10-05T05:15:23.953Z,10.70
2022-10-05T05:18:07.981Z,10.70
2022-10-05T05:20:53.894Z,10.70
2022-10-05T05:23:29.236Z,10.70
2022-10-05T05:26:10.014Z,10.70
2022-10-05T05:28:48.584Z,10.70
2022-10-05T05:31:28.678Z,10.70
2022-10-05T05:34:07.710Z,10.70
2022-10-05T05:36:49.807Z,10.60
2022-10-05T05:39:30.397Z,10.60
2022-10-05T05:42:22.810Z,10.60
2022-10-05T05:44:53.856Z,10.50
2022-10-05T05:47:29.302Z,10.50
2022-10-05T05:50:11.215Z,10.50
2022-10-05T05:52:42.806Z,10.60
2022-10-05T05:55:20.249Z,10.60
2022-10-05T05:57:57.609Z,10.60
2022-10-05T06:00:30.243Z,10.50
2022-10-05T06:03:08.139Z,10.60
2022-10-05T06:05:41.280Z,10.60
2022-10-05T06:08:17.130Z,10.60
2022-10-05T06:10:52.303Z,10.60
2022-10-05T06:13:32.953Z,10.60
2022-10-05T06:16:09.593Z,10.50
2022-10-05T06:18:41.903Z,10.50
2022-10-05T06:21:22.598Z,10.50
2022-10-05T06:23:58.964Z,10.50
2022-10-05T06:26:49.061Z,10.50
2022-10-05T06:29:24.545Z,10.50
2022-10-05T06:32:08.490Z,10.40
2022-10-05T06:34:57.826Z,10.50
2022-10-05T06:37:40.357Z,10.50
2022-10-05T06:40:28.886Z,10.50
2022-10-05T06:43:24.374Z,10.50
2022-10-05T06:46:03.926Z,10.50
2022-10-05T06:49:00.463Z,10.60
2022-10-05T06:51:41.981Z,10.60
2022-10-05T06:54:20.691Z,10.70
2022-10-05T06:56:57.142Z,10.80
2022-10-05T06:59:31.353Z,10.80
2022-10-05T07:02:13.300Z,10.80
2022-10-05T07:05:05.640Z,10.80
2022-10-05T07:07:46.079Z,10.90
2022-10-05T07:10:29.615Z,10.90
2022-10-05T07:13:25.441Z,10.90
2022-10-05T07:16:02.716Z,10.90
2022-10-05T07:18:50.463Z,10.90
2022-10-05T07:21:29.840Z,11.00
2022-10-05T07:24:08.526Z,11.00
2022-10-05T07:26:45.347Z,11.00
2022-10-05T07:29:31.501Z,11.00
2022-10-05T07:32:15.696Z,11.00
2022-10-05T07:34:55.167Z,11.00
2022-10-05T07:37:49.428Z,11.00
2022-10-05T07:40:24.816Z,11.00
2022-10-05T07:43:06.174Z,11.10
2022-10-05T07:45:44.667Z,11.30
2022-10-05T07:48:18.272Z,11.30
2022-10-05T07:51:00.072Z,11.40
2022-10-05T07:53:35.438Z,11.40
2022-10-05T07:56:11.354Z,11.40
2022-10-05T07:58:44.461Z,11.60
2022-10-05T08:01:19.335Z,11.60
2022-10-05T08:03:55.123Z,11.80
2022-10-05T08:06:45.900Z,12.00
2022-10-05T08:09:30.035Z,12.10
2022-10-05T08:12:08.576Z,12.10
2022-10-05T08:14:50.175Z,12.00
2022-10-05T08:17:26.686Z,12.10
2022-10-05T08:20:03.301Z,12.30
2022-10-05T08:22:46.686Z,12.40
2022-10-05T08:25:23.616Z,12.50
2022-10-05T08:27:57.087Z,12.50
2022-10-05T08:30:27.498Z,12.40
2022-10-05T08:33:03.989Z,12.60
2022-10-05T08:35:38.851Z,12.40
2022-10-05T08:38:14.385Z,12.50
2022-10-05T08:41:28.684Z,12.30
2022-10-05T08:44:28.980Z,12.10
2022-10-05T08:47:32.044Z,12.10
2022-10-05T08:50:15.913Z,12.10
2022-10-05T08:53:13.036Z,12.00
2022-10-05T08:55:53.382Z,11.90
2022-10-05T08:59:01.703Z,11.90
2022-10-05T09:01:38.059Z,12.00
2022-10-05T09:04:23.922Z,12.10
2022-10-05T09:07:16.523Z,11.90
2022-10-05T09:10:27.797Z,12.00
2022-10-05T09:13:28.229Z,12.10
2022-10-05T09:16:15.042Z,12.20
2022-10-05T09:19:28.484Z,12.30
2022-10-05T09:21:59.718Z,12.60
2022-10-05T09:24:34.517Z,12.70
2022-10-05T09:27:11.089Z,12.50
2022-10-05T09:30:12.940Z,12.70
2022-10-05T09:33:25.979Z,12.90
2022-10-05T09:36:23.917Z,13.20
2022-10-05T09:39:22.359Z,13.70
2022-10-05T09:42:33.048Z,13.90
2022-10-05T09:45:38.366Z,13.80
2022-10-05T09:48:51.518Z,13.60
2022-10-05T09:51:58.694Z,13.40
2022-10-05T09:55:01.395Z,13.50
2022-10-05T09:58:03.729Z,13.40
2022-10-05T10:01:03.815Z,13.50
2022-10-05T10:04:15.384Z,13.80
2022-10-05T10:07:28.985Z,14.00
2022-10-05T10:10:30.347Z,14.30
2022-10-05T10:13:25.597Z,14.60
2022-10-05T10:16:20.282Z,14.50
2022-10-05T10:19:06.817Z,14.80
2022-10-05T10:22:11.291Z,14.50
2022-10-05T10:25:21.732Z,14.50
2022-10-05T10:28:13.768Z,14.50
2022-10-05T10:31:07.682Z,14.60
2022-10-05T10:34:10.978Z,14.90
2022-10-05T10:37:10.937Z,14.90
2022-10-05T10:39:52.331Z,14.90
2022-10-05T10:42:37.614Z,14.90
2022-10-05T10:45:21.142Z,15.00
2022-10-05T10:48:00.322Z,15.10
2022-10-05T10:51:06.155Z,15.00
2022-10-05T10:54:05.081Z,15.20
2022-10-05T10:56:57.470Z,15.80
2022-10-05T11:00:01.501Z,16.10
2022-10-05T11:03:21.632Z,15.70
2022-10-05T11:06:22.515Z,15.20
2022-10-05T11:09:23.733Z,15.10
2022-10-05T11:12:21.975Z,14.70
2022-10-05T11:15:01.297Z,14.50
2022-10-05T11:17:57.859Z,14.30
2022-10-05T11:21:19.620Z,14.40
2022-10-05T11:24:27.181Z,14.30
2022-10-05T11:27:11.170Z,14.40
2022-10-05T11:30:17.090Z,14.40
2022-10-05T11:33:13.700Z,14.40
2022-10-05T11:35:54.624Z,14.60
2022-10-05T11:39:02.136Z,14.70
2022-10-05T11:42:10.486Z,14.80
2022-10-05T11:45:11.495Z,14.70
2022-10-05T11:47:52.813Z,14.60
2022-10-05T11:50:26.908Z,14.70
2022-10-05T11:53:01.853Z,14.70
2022-10-05T11:55:36.201Z,14.70
2022-10-05T11:58:13.722Z,14.70
2022-10-05T12:00:45.299Z,14.70
2022-10-05T12:03:42.519Z,14.70
2022-10-05T12:06:41.935Z,14.70
2022-10-05T12:09:24.353Z,14.60
2022-10-05T12:12:04.628Z,14.60
2022-10-05T12:14:45.696Z,14.70
2022-10-05T12:17:25.326Z,14.70
2022-10-05T12:19:59.819Z,14.80
2022-10-05T12:22:35.531Z,14.90
2022-10-05T12:25:21.588Z,14.90
2022-10-05T12:27:53.308Z,14.90
2022-10-05T12:30:34.905Z,15.00
2022-10-05T12:33:12.090Z,15.00
2022-10-05T12:35:48.960Z,15.00
2022-10-05T12:38:26.956Z,14.90
2022-10-05T12:41:07.345Z,15.00
2022-10-05T12:43:45.238Z,15.00
2022-10-05T12:46:24.763Z,15.10
2022-10-05T12:49:14.471Z,15.00
2022-10-05T12:51:46.174Z,15.00
2022-10-05T12:54:22.418Z,15.20
2022-10-05T12:56:55.823Z,15.70
2022-10-05T12:59:41.114Z,15.90
2022-10-05T13:02:23.726Z,15.80
2022-10-05T13:04:58.537Z,15.90
2022-10-05T13:07:40.540Z,16.10
2022-10-05T13:10:30.399Z,16.40
2022-10-05T13:13:15.537Z,16.70
2022-10-05T13:15:53.713Z,16.60
2022-10-05T13:18:34.554Z,16.40
2022-10-05T13:21:09.434Z,16.30
2022-10-05T13:23:55.087Z,16.20
2022-10-05T13:26:36.678Z,16.60
2022-10-05T13:29:18.101Z,17.10
2022-10-05T13:31:49.918Z,17.60
2022-10-05T13:34:29.174Z,17.70
2022-10-05T13:37:09.061Z,17.90
2022-10-05T13:39:59.210Z,17.50
2022-10-05T13:42:35.495Z,17.60
2022-10-05T13:45:13.729Z,17.90
2022-10-05T13:47:57.436Z,17.80
2022-10-05T13:50:33.707Z,18.30
2022-10-05T13:53:10.877Z,18.30
2022-10-05T13:55:47.175Z,18.20
2022-10-05T13:58:29.103Z,18.00
2022-10-05T14:01:03.610Z,17.60
2022-10-05T14:03:36.969Z,17.30
2022-10-05T14:06:15.789Z,17.10
2022-10-05T14:08:51.735Z,17.00
2022-10-05T14:11:31.403Z,16.90
2022-10-05T14:14:15.802Z,16.70
2022-10-05T14:16:54.492Z,16.80
2022-10-05T14:19:34.384Z,16.90
2022-10-05T14:22:16.302Z,16.90
2022-10-05T14:24:55.578Z,17.00
2022-10-05T14:27:27.100Z,17.00
2022-10-05T14:30:04.435Z,17.00
2022-10-05T14:32:44.265Z,16.90
2022-10-05T14:35:18.497Z,16.90
2022-10-05T14:37:53.462Z,16.90
2022-10-05T14:40:33.902Z,16.90
2022-10-05T14:43:21.698Z,16.80
2022-10-05T14:45:57.876Z,16.90
2022-10-05T14:48:30.420Z,16.80
2022-10-05T14:51:02.240Z,16.80
2022-10-05T14:53:45.289Z,16.80
2022-10-05T14:56:32.351Z,16.60
2022-10-05T14:59:27.882Z,16.60
2022-10-05T15:02:02.391Z,16.70
2022-10-05T15:04:43.558Z,16.70
2022-10-05T15:07:23.310Z,16.60
2022-10-05T15:10:12.283Z,16.60
2022-10-05T15:12:45.507Z,16.60
2022-10-05T15:15:29.423Z,16.60
2022-10-05T15:18:02.235Z,16.50
2022-10-05T15:20:39.346Z,16.50
2022-10-05T15:23:23.769Z,16.50
2022-10-05T15:26:02.966Z,16.50
2022-10-05T15:28:42.334Z,16.40
2022-10-05T15:31:23.369Z,16.40
2022-10-05T15:33:59.846Z,16.40
2022-10-05T15:36:37.178Z,16.50
2022-10-05T15:39:17.146Z,16.30
2022-10-05T15:42:00.339Z,16.40
2022-10-05T15:44:47.861Z,16.30
2022-10-05T15:47:23.814Z,16.30
2022-10-05T15:50:03.498Z,16.30
2022-10-05T15:52:39.167Z,16.20
2022-10-05T15:55:24.487Z,16.20
2022-10-05T15:58:12.431Z,16.20
2022-10-05T16:00:47.972Z,16.20
2022-10-05T16:03:27.353Z,16.10
2022-10-05T16:06:20.394Z,16.10
2022-10-05T16:09:03.133Z,16.10
2022-10-05T16:11:54.511Z,16.00
2022-10-05T16:14:55.060Z,16.00
2022-10-05T16:17:41.651Z,15.90
2022-10-05T16:20:32.004Z,15.80
2022-10-05T16:23:06.731Z,15.90
2022-10-05T16:25:48.756Z,15.90
2022-10-05T16:28:32.075Z,15.90
2022-10-05T16:31:09.543Z,16.00
2022-10-05T16:33:54.511Z,16.00
2022-10-05T16:36:35.795Z,15.90
2022-10-05T16:39:11.599Z,15.80
2022-10-05T16:41:48.003Z,15.90
2022-10-05T16:44:28.121Z,15.90
2022-10-05T16:47:27.628Z,15.80
2022-10-05T16:50:04.195Z,15.80
2022-10-05T16:52:34.141Z,15.80
2022-10-05T16:55:07.101Z,15.80
2022-10-05T16:57:39.804Z,15.70
2022-10-05T17:00:20.372Z,15.70
2022-10-05T17:03:10.238Z,15.70
2022-10-05T17:05:56.022Z,15.70
2022-10-05T17:08:47.444Z,15.70
2022-10-05T17:11:32.783Z,15.70
2022-10-05T17:14:29.087Z,15.60
2022-10-05T17:17:23.633Z,15.60
2022-10-05T17:20:02.238Z,15.60
2022-10-05T17:22:37.522Z,15.60
2022-10-05T17:25:18.380Z,15.70
2022-10-05T17:27:55.310Z,15.60
2022-10-05T17:30:39.685Z,15.60
2022-10-05T17:33:25.977Z,15.70
2022-10-05T17:36:18.026Z,15.60
2022-10-05T17:38:49.746Z,15.60
2022-10-05T17:41:21.480Z,15.60
2022-10-05T17:44:26.117Z,15.60
2022-10-05T17:46:56.833Z,15.60
2022-10-05T17:50:10.740Z,15.60
2022-10-05T17:53:01.852Z,15.70
2022-10-05T17:55:43.594Z,15.70
2022-10-05T17:59:04.194Z,15.70
2022-10-05T18:01:35.076Z,15.60
2022-10-05T18:04:44.877Z,15.60
2022-10-05T18:07:21.481Z,15.60
2022-10-05T18:10:17.807Z,15.60
2022-10-05T18:12:49.275Z,15.60
2022-10-05T18:15:46.122Z,15.50
2022-10-05T18:18:51.059Z,15.60
2022-10-05T18:21:40.410Z,15.50
2022-10-05T18:24:38.294Z,15.50
2022-10-05T18:27:42.121Z,15.50
2022-10-05T18:30:22.644Z,15.40
2022-10-05T18:33:13.811Z,15.40
2022-10-05T18:35:53.441Z,15.50
2022-10-05T18:38:35.329Z,15.50
2022-10-05T18:41:11.482Z,15.50
2022-10-05T18:43:47.091Z,15.60
2022-10-05T18:46:28.042Z,15.60
2022-10-05T18:49:08.055Z,15.50
2022-10-05T18:51:50.923Z,15.60
2022-10-05T18:54:36.046Z,15.60
2022-10-05T18:57:27.259Z,15.60
2022-10-05T19:00:03.231Z,15.60
2022-10-05T19:02:38.568Z,15.60
2022-10-05T19:05:46.488Z,15.60
2022-10-05T19:08:18.836Z,15.50
2022-10-05T19:10:54.550Z,15.50
2022-10-05T19:13:37.792Z,15.50
2022-10-05T19:16:26.784Z,15.60
2022-10-05T19:19:10.960Z,15.50
2022-10-05T19:21:47.649Z,15.60
2022-10-05T19:24:43.636Z,15.50
2022-10-05T19:27:20.367Z,15.40
2022-10-05T19:30:15.564Z,15.40
2022-10-05T19:33:19.887Z,15.40
2022-10-05T19:36:03.067Z,15.40
2022-10-05T19:38:45.788Z,15.40
2022-10-05T19:41:19.049Z,15.30
2022-10-05T19:44:03.652Z,15.30
2022-10-05T19:46:50.549Z,15.30
2022-10-05T19:49:45.795Z,15.30
2022-10-05T19:52:23.618Z,15.30
2022-10-05T19:55:04.711Z,15.20
2022-10-05T19:57:33.516Z,15.30
2022-10-05T20:00:06.095Z,15.20
2022-10-05T20:02:37.531Z,15.20
2022-10-05T20:05:10.496Z,15.20
2022-10-05T20:07:41.010Z,15.10
2022-10-05T20:10:29.139Z,15.10
2022-10-05T20:13:01.981Z,15.20
2022-10-05T20:15:49.168Z,15.20
2022-10-05T20:18:57.616Z,15.10
2022-10-05T20:21:49.815Z,15.10
2022-10-05T20:24:21.215Z,15.20
2022-10-05T20:27:06.006Z,15.20
2022-10-05T20:29:36.568Z,15.20
2022-10-05T20:32:08.722Z,15.20
2022-10-05T20:34:39.305Z,15.20
2022-10-05T20:37:07.677Z,15.20
2022-10-05T20:39:37.456Z,15.20
2022-10-05T20:42:07.486Z,15.20
2022-10-05T20:44:36.396Z,15.20
2022-10-05T20:47:05.111Z,15.20
2022-10-05T20:49:35.316Z,15.20
2022-10-05T20:52:04.627Z,15.20
2022-10-05T20:54:33.419Z,15.30
2022-10-05T20:57:05.741Z,15.20
2022-10-05T20:59:35.116Z,15.20
2022-10-05T21:02:03.870Z,15.20
2022-10-05T21:04:40.853Z,15.20
2022-10-05T21:07:10.583Z,15.30
2022-10-05T21:09:40.982Z,15.30
2022-10-05T21:12:11.517Z,15.30
2022-10-05T21:14:40.613Z,15.30
2022-10-05T21:17:14.240Z,15.20
2022-10-05T21:19:42.637Z,15.20
2022-10-05T21:22:11.975Z,15.20
2022-10-05T21:24:42.013Z,15.20
2022-10-05T21:27:11.812Z,15.30
2022-10-05T21:29:41.254Z,15.20
2022-10-05T21:32:11.955Z,15.20
2022-10-05T21:34:41.100Z,15.20
2022-10-05T21:37:10.053Z,15.10
2022-10-05T21:39:38.415Z,15.20
2022-10-05T21:42:06.816Z,15.10
2022-10-05T21:44:36.604Z,15.10
2022-10-05T21:47:06.982Z,15.10
2022-10-05T21:49:36.557Z,15.10
2022-10-05T21:52:06.037Z,15.20
2022-10-05T21:54:35.178Z,15.20
2022-10-05T21:57:04.223Z,15.30
2022-10-05T21:59:35.073Z,15.30
2022-10-05T22:02:05.215Z,15.20
2022-10-05T22:04:33.614Z,15.20
2022-10-05T22:07:01.848Z,15.20
2022-10-05T22:09:30.493Z,15.20
2022-10-05T22:11:59.193Z,15.30
2022-10-05T22:14:28.348Z,15.30
2022-10-05T22:16:56.643Z,15.40
2022-10-05T22:19:26.647Z,15.40
2022-10-05T22:21:55.013Z,15.40
2022-10-05T22:24:23.894Z,15.40
2022-10-05T22:26:52.905Z,15.40
2022-10-05T22:29:23.452Z,15.40
2022-10-05T22:31:51.754Z,15.30
2022-10-05T22:34:20.105Z,15.30
2022-10-05T22:36:50.265Z,15.30
2022-10-05T22:39:19.195Z,15.20
2022-10-05T22:41:47.973Z,15.30
2022-10-05T22:44:17.066Z,15.20
2022-10-05T22:46:45.497Z,15.20
2022-10-05T22:49:14.267Z,15.20
2022-10-05T22:51:42.914Z,15.20
2022-10-05T22:54:12.935Z,15.30
2022-10-05T22:56:41.260Z,15.20
2022-10-05T22:59:09.871Z,15.20
2022-10-05T23:01:38.241Z,15.30
2022-10-05T23:04:08.838Z,15.30
2022-10-05T23:06:37.675Z,15.40
2022-10-05T23:09:06.408Z,15.40
2022-10-05T23:11:36.889Z,15.40
2022-10-05T23:14:05.161Z,15.40
2022-10-05T23:16:35.815Z,15.40
2022-10-05T23:19:04.212Z,15.40
2022-10-05T23:21:32.436Z,15.40
2022-10-05T23:24:00.960Z,15.50
2022-10-05T23:26:30.618Z,15.40
2022-10-05T23:29:00.463Z,15.50
2022-10-05T23:31:33.546Z,15.50
2022-10-05T23:34:01.865Z,15.60
2022-10-05T23:36:32.468Z,15.60
2022-10-05T23:39:01.269Z,15.60
2022-10-05T23:41:30.465Z,15.70
2022-10-05T23:44:00.251Z,15.70
2022-10-05T23:46:28.805Z,15.70
2022-10-05T23:48:57.214Z,15.60
2022-10-05T23:51:25.661Z,15.60
2022-10-05T23:53:54.124Z,15.70
2022-10-05T23:56:22.622Z,15.70
2022-10-05T23:58:52.712Z,15.70
